sensor_id;sensor_type;location;lat;lon;timestamp;P1;durP1;ratioP1;P2;durP2;ratioP2
51927;SDS011;37953;52.806;18.270;2022-07-06T00:00:52;4.85;;;2.10;;
51927;SDS011;37953;52.806;18.270;2022-07-06T00:03:19;4.10;;;2.00;;
51927;SDS011;37953;52.806;18.270;2022-07-06T00:05:48;3.92;;;2.20;;
51927;SDS011;37953;52.806;18.270;2022-07-06T00:08:15;6.28;;;2.17;;
51927;SDS011;37953;52.806;18.270;2022-07-06T00:10:47;5.10;;;2.13;;
51927;SDS011;37953;52.806;18.270;2022-07-06T00:13:16;5.15;;;1.83;;
51927;SDS011;37953;52.806;18.270;2022-07-06T00:15:45;3.55;;;1.92;;
51927;SDS011;37953;52.806;18.270;2022-07-06T00:18:12;4.63;;;1.90;;
51927;SDS011;37953;52.806;18.270;2022-07-06T00:20:39;5.15;;;1.90;;
51927;SDS011;37953;52.806;18.270;2022-07-06T00:23:12;4.47;;;2.10;;
51927;SDS011;37953;52.806;18.270;2022-07-06T00:25:41;6.13;;;1.90;;
51927;SDS011;37953;52.806;18.270;2022-07-06T00:28:14;4.03;;;2.30;;
51927;SDS011;37953;52.806;18.270;2022-07-06T00:30:42;5.82;;;2.17;;
51927;SDS011;37953;52.806;18.270;2022-07-06T00:33:11;7.72;;;2.13;;
51927;SDS011;37953;52.806;18.270;2022-07-06T00:38:42;5.55;;;2.58;;
51927;SDS011;37953;52.806;18.270;2022-07-06T00:41:13;5.53;;;3.03;;
51927;SDS011;37953;52.806;18.270;2022-07-06T00:43:52;7.53;;;3.20;;
51927;SDS011;37953;52.806;18.270;2022-07-06T00:46:27;7.80;;;3.47;;
51927;SDS011;37953;52.806;18.270;2022-07-06T00:49:02;7.57;;;3.10;;
51927;SDS011;37953;52.806;18.270;2022-07-06T00:54:03;6.53;;;2.88;;
51927;SDS011;37953;52.806;18.270;2022-07-06T00:59:49;8.05;;;2.83;;
51927;SDS011;37953;52.806;18.270;2022-07-06T01:02:17;5.75;;;3.00;;
51927;SDS011;37953;52.806;18.270;2022-07-06T01:04:44;7.28;;;3.40;;
51927;SDS011;37953;52.806;18.270;2022-07-06T01:07:13;6.95;;;3.00;;
51927;SDS011;37953;52.806;18.270;2022-07-06T01:09:41;7.43;;;3.08;;
51927;SDS011;37953;52.806;18.270;2022-07-06T01:12:10;5.93;;;3.20;;
51927;SDS011;37953;52.806;18.270;2022-07-06T01:14:38;8.80;;;3.72;;
51927;SDS011;37953;52.806;18.270;2022-07-06T01:17:04;7.47;;;4.10;;
51927;SDS011;37953;52.806;18.270;2022-07-06T01:19:33;6.40;;;3.65;;
51927;SDS011;37953;52.806;18.270;2022-07-06T01:22:03;6.43;;;3.65;;
51927;SDS011;37953;52.806;18.270;2022-07-06T01:24:36;5.80;;;3.38;;
51927;SDS011;37953;52.806;18.270;2022-07-06T01:27:06;6.47;;;3.35;;
51927;SDS011;37953;52.806;18.270;2022-07-06T01:29:33;6.40;;;3.78;;
51927;SDS011;37953;52.806;18.270;2022-07-06T01:32:01;7.80;;;4.55;;
51927;SDS011;37953;52.806;18.270;2022-07-06T01:34:28;10.00;;;5.00;;
51927;SDS011;37953;52.806;18.270;2022-07-06T01:36:54;9.40;;;6.05;;
51927;SDS011;37953;52.806;18.270;2022-07-06T01:39:21;11.68;;;6.57;;
51927;SDS011;37953;52.806;18.270;2022-07-06T01:41:48;12.55;;;6.72;;
51927;SDS011;37953;52.806;18.270;2022-07-06T01:44:18;14.73;;;7.95;;
51927;SDS011;37953;52.806;18.270;2022-07-06T01:46:48;18.60;;;10.80;;
51927;SDS011;37953;52.806;18.270;2022-07-06T01:49:17;17.15;;;11.90;;
51927;SDS011;37953;52.806;18.270;2022-07-06T01:51:49;21.65;;;13.52;;
51927;SDS011;37953;52.806;18.270;2022-07-06T01:56:45;17.77;;;12.95;;
51927;SDS011;37953;52.806;18.270;2022-07-06T01:59:17;23.05;;;13.50;;
51927;SDS011;37953;52.806;18.270;2022-07-06T02:01:48;18.75;;;12.07;;
51927;SDS011;37953;52.806;18.270;2022-07-06T02:04:14;19.50;;;11.88;;
51927;SDS011;37953;52.806;18.270;2022-07-06T02:06:47;17.30;;;10.90;;
51927;SDS011;37953;52.806;18.270;2022-07-06T02:09:13;19.48;;;9.50;;
51927;SDS011;37953;52.806;18.270;2022-07-06T02:11:42;14.35;;;8.75;;
51927;SDS011;37953;52.806;18.270;2022-07-06T02:14:16;13.43;;;7.88;;
51927;SDS011;37953;52.806;18.270;2022-07-06T02:16:50;12.43;;;7.55;;
51927;SDS011;37953;52.806;18.270;2022-07-06T02:19:22;12.30;;;7.60;;
51927;SDS011;37953;52.806;18.270;2022-07-06T02:21:52;13.25;;;7.50;;
51927;SDS011;37953;52.806;18.270;2022-07-06T02:24:23;14.95;;;8.82;;
51927;SDS011;37953;52.806;18.270;2022-07-06T02:26:55;12.57;;;8.45;;
51927;SDS011;37953;52.806;18.270;2022-07-06T02:29:23;14.52;;;9.10;;
51927;SDS011;37953;52.806;18.270;2022-07-06T02:32:01;16.17;;;9.82;;
51927;SDS011;37953;52.806;18.270;2022-07-06T02:34:35;15.25;;;9.20;;
51927;SDS011;37953;52.806;18.270;2022-07-06T02:37:09;14.75;;;8.77;;
51927;SDS011;37953;52.806;18.270;2022-07-06T02:39:41;13.00;;;7.75;;
51927;SDS011;37953;52.806;18.270;2022-07-06T02:42:09;11.05;;;7.05;;
51927;SDS011;37953;52.806;18.270;2022-07-06T02:44:38;10.45;;;6.63;;
51927;SDS011;37953;52.806;18.270;2022-07-06T02:47:04;11.25;;;6.50;;
51927;SDS011;37953;52.806;18.270;2022-07-06T02:49:37;11.13;;;6.20;;
51927;SDS011;37953;52.806;18.270;2022-07-06T02:52:14;10.85;;;6.25;;
51927;SDS011;37953;52.806;18.270;2022-07-06T02:54:43;10.50;;;6.22;;
51927;SDS011;37953;52.806;18.270;2022-07-06T02:57:17;9.90;;;5.68;;
51927;SDS011;37953;52.806;18.270;2022-07-06T02:59:54;9.40;;;5.53;;
51927;SDS011;37953;52.806;18.270;2022-07-06T03:02:23;10.38;;;5.80;;
51927;SDS011;37953;52.806;18.270;2022-07-06T03:04:53;14.00;;;5.32;;
51927;SDS011;37953;52.806;18.270;2022-07-06T03:07:24;11.48;;;5.05;;
51927;SDS011;37953;52.806;18.270;2022-07-06T03:09:50;9.55;;;5.20;;
51927;SDS011;37953;52.806;18.270;2022-07-06T03:12:16;10.93;;;4.88;;
51927;SDS011;37953;52.806;18.270;2022-07-06T03:14:43;10.30;;;5.10;;
51927;SDS011;37953;52.806;18.270;2022-07-06T03:17:11;7.32;;;4.55;;
51927;SDS011;37953;52.806;18.270;2022-07-06T03:19:38;8.70;;;4.65;;
51927;SDS011;37953;52.806;18.270;2022-07-06T03:22:06;6.68;;;4.32;;
51927;SDS011;37953;52.806;18.270;2022-07-06T03:24:32;8.73;;;4.50;;
51927;SDS011;37953;52.806;18.270;2022-07-06T03:27:01;11.38;;;4.13;;
51927;SDS011;37953;52.806;18.270;2022-07-06T03:29:27;6.47;;;4.13;;
51927;SDS011;37953;52.806;18.270;2022-07-06T03:31:53;9.05;;;4.60;;
51927;SDS011;37953;52.806;18.270;2022-07-06T03:34:19;10.55;;;4.28;;
51927;SDS011;37953;52.806;18.270;2022-07-06T03:36:45;7.75;;;4.68;;
51927;SDS011;37953;52.806;18.270;2022-07-06T03:39:11;8.30;;;4.80;;
51927;SDS011;37953;52.806;18.270;2022-07-06T03:41:37;11.82;;;4.82;;
51927;SDS011;37953;52.806;18.270;2022-07-06T03:44:06;9.68;;;4.50;;
51927;SDS011;37953;52.806;18.270;2022-07-06T03:46:32;7.18;;;4.45;;
51927;SDS011;37953;52.806;18.270;2022-07-06T03:48:58;8.85;;;4.78;;
51927;SDS011;37953;52.806;18.270;2022-07-06T03:51:23;7.93;;;4.70;;
51927;SDS011;37953;52.806;18.270;2022-07-06T03:53:49;8.20;;;4.82;;
51927;SDS011;37953;52.806;18.270;2022-07-06T03:56:15;8.38;;;5.05;;
51927;SDS011;37953;52.806;18.270;2022-07-06T03:58:59;8.55;;;5.22;;
51927;SDS011;37953;52.806;18.270;2022-07-06T04:01:27;9.82;;;4.95;;
51927;SDS011;37953;52.806;18.270;2022-07-06T04:03:56;7.47;;;4.95;;
51927;SDS011;37953;52.806;18.270;2022-07-06T04:06:23;8.73;;;5.13;;
51927;SDS011;37953;52.806;18.270;2022-07-06T04:08:49;9.43;;;4.93;;
51927;SDS011;37953;52.806;18.270;2022-07-06T04:11:15;10.00;;;5.65;;
51927;SDS011;37953;52.806;18.270;2022-07-06T04:13:41;12.40;;;4.80;;
51927;SDS011;37953;52.806;18.270;2022-07-06T04:16:07;8.18;;;5.07;;
51927;SDS011;37953;52.806;18.270;2022-07-06T04:18:34;9.70;;;5.15;;
51927;SDS011;37953;52.806;18.270;2022-07-06T04:21:00;12.75;;;5.43;;
51927;SDS011;37953;52.806;18.270;2022-07-06T04:23:26;9.70;;;5.93;;
51927;SDS011;37953;52.806;18.270;2022-07-06T04:25:52;8.65;;;5.10;;
51927;SDS011;37953;52.806;18.270;2022-07-06T04:28:17;10.10;;;5.10;;
51927;SDS011;37953;52.806;18.270;2022-07-06T04:30:43;10.77;;;5.38;;
51927;SDS011;37953;52.806;18.270;2022-07-06T04:33:09;9.68;;;5.60;;
51927;SDS011;37953;52.806;18.270;2022-07-06T04:35:35;9.55;;;5.40;;
51927;SDS011;37953;52.806;18.270;2022-07-06T04:38:01;11.55;;;5.38;;
51927;SDS011;37953;52.806;18.270;2022-07-06T04:40:27;9.60;;;5.82;;
51927;SDS011;37953;52.806;18.270;2022-07-06T04:42:53;11.95;;;6.07;;
51927;SDS011;37953;52.806;18.270;2022-07-06T04:45:19;10.57;;;6.15;;
51927;SDS011;37953;52.806;18.270;2022-07-06T04:47:45;15.80;;;6.50;;
51927;SDS011;37953;52.806;18.270;2022-07-06T04:50:11;13.65;;;7.05;;
51927;SDS011;37953;52.806;18.270;2022-07-06T04:52:37;10.63;;;6.43;;
51927;SDS011;37953;52.806;18.270;2022-07-06T04:55:04;18.95;;;7.60;;
51927;SDS011;37953;52.806;18.270;2022-07-06T04:57:31;11.23;;;7.00;;
51927;SDS011;37953;52.806;18.270;2022-07-06T04:59:58;15.73;;;7.60;;
51927;SDS011;37953;52.806;18.270;2022-07-06T05:02:24;12.98;;;7.25;;
51927;SDS011;37953;52.806;18.270;2022-07-06T05:04:50;13.82;;;7.10;;
51927;SDS011;37953;52.806;18.270;2022-07-06T05:07:16;16.40;;;7.97;;
51927;SDS011;37953;52.806;18.270;2022-07-06T05:09:42;12.32;;;6.88;;
51927;SDS011;37953;52.806;18.270;2022-07-06T05:12:08;11.73;;;6.13;;
51927;SDS011;37953;52.806;18.270;2022-07-06T05:14:35;13.95;;;6.10;;
51927;SDS011;37953;52.806;18.270;2022-07-06T05:17:02;11.85;;;6.50;;
51927;SDS011;37953;52.806;18.270;2022-07-06T05:19:28;12.90;;;6.85;;
51927;SDS011;37953;52.806;18.270;2022-07-06T05:21:54;10.75;;;7.07;;
51927;SDS011;37953;52.806;18.270;2022-07-06T05:24:20;14.50;;;6.80;;
51927;SDS011;37953;52.806;18.270;2022-07-06T05:26:46;15.25;;;6.28;;
51927;SDS011;37953;52.806;18.270;2022-07-06T05:29:12;13.43;;;6.20;;
51927;SDS011;37953;52.806;18.270;2022-07-06T05:31:38;9.88;;;5.57;;
51927;SDS011;37953;52.806;18.270;2022-07-06T05:34:04;11.13;;;5.43;;
51927;SDS011;37953;52.806;18.270;2022-07-06T05:36:30;8.15;;;5.47;;
51927;SDS011;37953;52.806;18.270;2022-07-06T05:38:56;10.27;;;5.10;;
51927;SDS011;37953;52.806;18.270;2022-07-06T05:41:22;10.77;;;5.90;;
51927;SDS011;37953;52.806;18.270;2022-07-06T05:43:49;17.05;;;6.03;;
51927;SDS011;37953;52.806;18.270;2022-07-06T05:46:15;7.70;;;4.60;;
51927;SDS011;37953;52.806;18.270;2022-07-06T05:48:41;7.28;;;4.50;;
51927;SDS011;37953;52.806;18.270;2022-07-06T05:51:25;5.82;;;3.28;;
51927;SDS011;37953;52.806;18.270;2022-07-06T05:53:51;7.43;;;3.60;;
51927;SDS011;37953;52.806;18.270;2022-07-06T05:56:17;6.70;;;3.33;;
51927;SDS011;37953;52.806;18.270;2022-07-06T05:58:43;7.78;;;2.90;;
51927;SDS011;37953;52.806;18.270;2022-07-06T06:01:09;5.57;;;2.80;;
51927;SDS011;37953;52.806;18.270;2022-07-06T06:03:35;5.20;;;2.33;;
51927;SDS011;37953;52.806;18.270;2022-07-06T06:06:01;6.55;;;2.28;;
51927;SDS011;37953;52.806;18.270;2022-07-06T06:08:27;5.90;;;2.55;;
51927;SDS011;37953;52.806;18.270;2022-07-06T06:10:54;5.50;;;1.83;;
51927;SDS011;37953;52.806;18.270;2022-07-06T06:13:20;5.18;;;2.10;;
51927;SDS011;37953;52.806;18.270;2022-07-06T06:15:46;5.32;;;1.40;;
51927;SDS011;37953;52.806;18.270;2022-07-06T06:18:12;2.85;;;1.30;;
51927;SDS011;37953;52.806;18.270;2022-07-06T06:20:38;6.07;;;1.17;;
51927;SDS011;37953;52.806;18.270;2022-07-06T06:23:04;3.50;;;1.50;;
51927;SDS011;37953;52.806;18.270;2022-07-06T06:25:34;4.32;;;1.65;;
51927;SDS011;37953;52.806;18.270;2022-07-06T06:28:06;4.35;;;1.65;;
51927;SDS011;37953;52.806;18.270;2022-07-06T06:30:33;4.63;;;1.55;;
51927;SDS011;37953;52.806;18.270;2022-07-06T06:35:37;5.13;;;1.30;;
51927;SDS011;37953;52.806;18.270;2022-07-06T06:38:09;6.40;;;2.00;;
51927;SDS011;37953;52.806;18.270;2022-07-06T06:40:35;3.38;;;1.05;;
51927;SDS011;37953;52.806;18.270;2022-07-06T06:43:02;2.58;;;1.02;;
51927;SDS011;37953;52.806;18.270;2022-07-06T06:45:28;5.72;;;0.90;;
51927;SDS011;37953;52.806;18.270;2022-07-06T06:47:54;9.27;;;3.13;;
51927;SDS011;37953;52.806;18.270;2022-07-06T06:50:21;8.13;;;3.97;;
51927;SDS011;37953;52.806;18.270;2022-07-06T06:52:49;5.55;;;2.20;;
51927;SDS011;37953;52.806;18.270;2022-07-06T06:55:19;8.20;;;1.40;;
51927;SDS011;37953;52.806;18.270;2022-07-06T06:57:45;5.97;;;1.30;;
51927;SDS011;37953;52.806;18.270;2022-07-06T07:00:12;3.97;;;1.10;;
51927;SDS011;37953;52.806;18.270;2022-07-06T07:02:39;6.03;;;1.35;;
51927;SDS011;37953;52.806;18.270;2022-07-06T07:05:05;3.17;;;0.90;;
51927;SDS011;37953;52.806;18.270;2022-07-06T07:07:32;5.78;;;0.82;;
51927;SDS011;37953;52.806;18.270;2022-07-06T07:09:58;3.70;;;0.88;;
51927;SDS011;37953;52.806;18.270;2022-07-06T07:12:25;6.22;;;1.10;;
51927;SDS011;37953;52.806;18.270;2022-07-06T07:14:51;4.45;;;1.27;;
51927;SDS011;37953;52.806;18.270;2022-07-06T07:17:17;5.30;;;1.42;;
51927;SDS011;37953;52.806;18.270;2022-07-06T07:19:43;4.28;;;1.40;;
51927;SDS011;37953;52.806;18.270;2022-07-06T07:22:09;4.70;;;1.40;;
51927;SDS011;37953;52.806;18.270;2022-07-06T07:24:35;3.38;;;1.30;;
51927;SDS011;37953;52.806;18.270;2022-07-06T07:27:01;3.08;;;1.40;;
51927;SDS011;37953;52.806;18.270;2022-07-06T07:29:27;3.50;;;1.10;;
51927;SDS011;37953;52.806;18.270;2022-07-06T07:31:53;5.28;;;1.10;;
51927;SDS011;37953;52.806;18.270;2022-07-06T07:34:22;2.92;;;1.15;;
51927;SDS011;37953;52.806;18.270;2022-07-06T07:36:48;2.65;;;0.80;;
51927;SDS011;37953;52.806;18.270;2022-07-06T07:39:14;1.67;;;1.20;;
51927;SDS011;37953;52.806;18.270;2022-07-06T07:41:40;2.80;;;1.17;;
51927;SDS011;37953;52.806;18.270;2022-07-06T07:44:06;2.97;;;1.92;;
51927;SDS011;37953;52.806;18.270;2022-07-06T07:46:33;4.32;;;1.52;;
51927;SDS011;37953;52.806;18.270;2022-07-06T07:48:58;5.07;;;1.20;;
51927;SDS011;37953;52.806;18.270;2022-07-06T07:51:25;11.27;;;2.15;;
51927;SDS011;37953;52.806;18.270;2022-07-06T07:53:51;2.03;;;1.00;;
51927;SDS011;37953;52.806;18.270;2022-07-06T07:56:17;4.20;;;0.80;;
51927;SDS011;37953;52.806;18.270;2022-07-06T07:58:43;1.73;;;0.82;;
51927;SDS011;37953;52.806;18.270;2022-07-06T08:01:09;2.75;;;1.02;;
51927;SDS011;37953;52.806;18.270;2022-07-06T08:03:36;1.80;;;0.90;;
51927;SDS011;37953;52.806;18.270;2022-07-06T08:06:02;2.95;;;1.10;;
51927;SDS011;37953;52.806;18.270;2022-07-06T08:08:28;5.10;;;1.10;;
51927;SDS011;37953;52.806;18.270;2022-07-06T08:10:54;3.22;;;1.00;;
51927;SDS011;37953;52.806;18.270;2022-07-06T08:13:20;3.33;;;0.90;;
51927;SDS011;37953;52.806;18.270;2022-07-06T08:15:46;4.70;;;0.75;;
51927;SDS011;37953;52.806;18.270;2022-07-06T08:18:12;4.55;;;0.80;;
51927;SDS011;37953;52.806;18.270;2022-07-06T08:20:38;3.65;;;0.80;;
51927;SDS011;37953;52.806;18.270;2022-07-06T08:23:04;3.13;;;0.85;;
51927;SDS011;37953;52.806;18.270;2022-07-06T08:25:30;2.60;;;0.80;;
51927;SDS011;37953;52.806;18.270;2022-07-06T08:27:57;2.33;;;0.90;;
51927;SDS011;37953;52.806;18.270;2022-07-06T08:30:23;5.55;;;1.73;;
51927;SDS011;37953;52.806;18.270;2022-07-06T08:32:50;4.38;;;1.50;;
51927;SDS011;37953;52.806;18.270;2022-07-06T08:35:16;3.90;;;1.45;;
51927;SDS011;37953;52.806;18.270;2022-07-06T08:37:42;3.50;;;1.00;;
51927;SDS011;37953;52.806;18.270;2022-07-06T08:40:11;3.20;;;1.20;;
51927;SDS011;37953;52.806;18.270;2022-07-06T08:42:37;2.80;;;0.70;;
51927;SDS011;37953;52.806;18.270;2022-07-06T08:45:04;5.68;;;0.85;;
51927;SDS011;37953;52.806;18.270;2022-07-06T08:47:32;2.55;;;0.80;;
51927;SDS011;37953;52.806;18.270;2022-07-06T08:50:05;2.28;;;0.88;;
51927;SDS011;37953;52.806;18.270;2022-07-06T08:52:32;6.93;;;1.15;;
51927;SDS011;37953;52.806;18.270;2022-07-06T08:54:58;7.25;;;1.38;;
51927;SDS011;37953;52.806;18.270;2022-07-06T08:57:25;5.72;;;1.00;;
51927;SDS011;37953;52.806;18.270;2022-07-06T08:59:51;2.35;;;0.65;;
51927;SDS011;37953;52.806;18.270;2022-07-06T09:02:17;23.90;;;1.73;;
51927;SDS011;37953;52.806;18.270;2022-07-06T09:04:44;3.28;;;0.90;;
51927;SDS011;37953;52.806;18.270;2022-07-06T09:07:13;3.88;;;0.80;;
51927;SDS011;37953;52.806;18.270;2022-07-06T09:09:39;5.53;;;0.90;;
51927;SDS011;37953;52.806;18.270;2022-07-06T09:12:09;3.92;;;1.00;;
51927;SDS011;37953;52.806;18.270;2022-07-06T09:14:46;3.08;;;1.08;;
51927;SDS011;37953;52.806;18.270;2022-07-06T09:17:12;5.18;;;1.10;;
51927;SDS011;37953;52.806;18.270;2022-07-06T09:19:39;2.17;;;0.90;;
51927;SDS011;37953;52.806;18.270;2022-07-06T09:22:05;3.38;;;0.90;;
51927;SDS011;37953;52.806;18.270;2022-07-06T09:24:31;2.72;;;0.80;;
51927;SDS011;37953;52.806;18.270;2022-07-06T09:26:57;3.33;;;0.90;;
51927;SDS011;37953;52.806;18.270;2022-07-06T09:29:26;1.55;;;0.73;;
51927;SDS011;37953;52.806;18.270;2022-07-06T09:32:00;3.25;;;0.90;;
51927;SDS011;37953;52.806;18.270;2022-07-06T09:34:43;1.85;;;0.68;;
51927;SDS011;37953;52.806;18.270;2022-07-06T09:37:11;3.92;;;1.08;;
51927;SDS011;37953;52.806;18.270;2022-07-06T09:39:42;4.78;;;0.80;;
51927;SDS011;37953;52.806;18.270;2022-07-06T09:42:10;3.13;;;0.85;;
51927;SDS011;37953;52.806;18.270;2022-07-06T09:44:37;9.63;;;1.30;;
51927;SDS011;37953;52.806;18.270;2022-07-06T09:47:08;3.35;;;1.08;;
51927;SDS011;37953;52.806;18.270;2022-07-06T09:49:36;2.70;;;1.40;;
51927;SDS011;37953;52.806;18.270;2022-07-06T09:52:05;6.35;;;1.20;;
51927;SDS011;37953;52.806;18.270;2022-07-06T09:54:33;3.80;;;0.93;;
51927;SDS011;37953;52.806;18.270;2022-07-06T09:57:00;5.18;;;1.30;;
51927;SDS011;37953;52.806;18.270;2022-07-06T09:59:33;9.63;;;1.50;;
51927;SDS011;37953;52.806;18.270;2022-07-06T10:02:02;5.10;;;1.27;;
51927;SDS011;37953;52.806;18.270;2022-07-06T10:04:35;6.93;;;1.30;;
51927;SDS011;37953;52.806;18.270;2022-07-06T10:07:01;3.15;;;0.93;;
51927;SDS011;37953;52.806;18.270;2022-07-06T10:09:28;2.40;;;1.10;;
51927;SDS011;37953;52.806;18.270;2022-07-06T10:11:59;2.95;;;1.10;;
51927;SDS011;37953;52.806;18.270;2022-07-06T10:16:53;5.72;;;1.23;;
51927;SDS011;37953;52.806;18.270;2022-07-06T10:19:27;3.35;;;1.38;;
51927;SDS011;37953;52.806;18.270;2022-07-06T10:21:55;3.20;;;1.25;;
51927;SDS011;37953;52.806;18.270;2022-07-06T10:24:28;3.10;;;1.00;;
51927;SDS011;37953;52.806;18.270;2022-07-06T10:26:56;2.22;;;0.90;;
51927;SDS011;37953;52.806;18.270;2022-07-06T10:29:23;2.13;;;1.48;;
51927;SDS011;37953;52.806;18.270;2022-07-06T10:31:50;4.93;;;2.25;;
51927;SDS011;37953;52.806;18.270;2022-07-06T10:34:18;5.47;;;2.35;;
51927;SDS011;37953;52.806;18.270;2022-07-06T10:36:48;5.70;;;1.73;;
51927;SDS011;37953;52.806;18.270;2022-07-06T10:39:16;3.33;;;1.40;;
51927;SDS011;37953;52.806;18.270;2022-07-06T10:45:20;2.47;;;1.25;;
51927;SDS011;37953;52.806;18.270;2022-07-06T10:50:39;2.95;;;1.30;;
51927;SDS011;37953;52.806;18.270;2022-07-06T10:53:12;2.00;;;1.10;;
51927;SDS011;37953;52.806;18.270;2022-07-06T10:55:54;4.97;;;1.10;;
51927;SDS011;37953;52.806;18.270;2022-07-06T10:58:40;3.63;;;1.10;;
51927;SDS011;37953;52.806;18.270;2022-07-06T11:01:16;7.05;;;1.20;;
51927;SDS011;37953;52.806;18.270;2022-07-06T11:03:50;4.97;;;1.02;;
51927;SDS011;37953;52.806;18.270;2022-07-06T11:06:37;3.33;;;1.20;;
51927;SDS011;37953;52.806;18.270;2022-07-06T11:09:06;1.73;;;1.03;;
51927;SDS011;37953;52.806;18.270;2022-07-06T11:14:04;2.70;;;0.80;;
51927;SDS011;37953;52.806;18.270;2022-07-06T11:19:16;3.72;;;1.30;;
51927;SDS011;37953;52.806;18.270;2022-07-06T11:24:13;3.13;;;1.50;;
51927;SDS011;37953;52.806;18.270;2022-07-06T11:26:50;2.72;;;1.45;;
51927;SDS011;37953;52.806;18.270;2022-07-06T11:29:18;5.15;;;1.48;;
51927;SDS011;37953;52.806;18.270;2022-07-06T11:31:47;5.40;;;1.70;;
51927;SDS011;37953;52.806;18.270;2022-07-06T11:34:18;3.20;;;1.55;;
51927;SDS011;37953;52.806;18.270;2022-07-06T11:36:58;5.25;;;1.52;;
51927;SDS011;37953;52.806;18.270;2022-07-06T11:39:26;4.40;;;1.35;;
51927;SDS011;37953;52.806;18.270;2022-07-06T11:41:54;4.63;;;1.40;;
51927;SDS011;37953;52.806;18.270;2022-07-06T11:44:21;4.85;;;1.45;;
51927;SDS011;37953;52.806;18.270;2022-07-06T11:46:48;7.68;;;2.20;;
51927;SDS011;37953;52.806;18.270;2022-07-06T11:49:14;6.03;;;1.77;;
51927;SDS011;37953;52.806;18.270;2022-07-06T11:51:41;5.70;;;1.30;;
51927;SDS011;37953;52.806;18.270;2022-07-06T11:54:15;5.60;;;1.20;;
51927;SDS011;37953;52.806;18.270;2022-07-06T11:57:01;3.60;;;1.02;;
51927;SDS011;37953;52.806;18.270;2022-07-06T11:59:30;1.73;;;0.90;;
51927;SDS011;37953;52.806;18.270;2022-07-06T12:02:03;2.63;;;1.02;;
51927;SDS011;37953;52.806;18.270;2022-07-06T12:04:41;2.00;;;0.75;;
51927;SDS011;37953;52.806;18.270;2022-07-06T12:07:09;2.55;;;1.08;;
51927;SDS011;37953;52.806;18.270;2022-07-06T12:09:41;3.67;;;1.23;;
51927;SDS011;37953;52.806;18.270;2022-07-06T12:12:13;3.53;;;0.95;;
51927;SDS011;37953;52.806;18.270;2022-07-06T12:14:41;4.03;;;1.10;;
51927;SDS011;37953;52.806;18.270;2022-07-06T12:17:11;1.77;;;1.00;;
51927;SDS011;37953;52.806;18.270;2022-07-06T12:19:39;3.08;;;1.30;;
51927;SDS011;37953;52.806;18.270;2022-07-06T12:22:06;3.33;;;1.00;;
51927;SDS011;37953;52.806;18.270;2022-07-06T12:24:33;4.25;;;1.23;;
51927;SDS011;37953;52.806;18.270;2022-07-06T12:29:46;3.13;;;1.20;;
51927;SDS011;37953;52.806;18.270;2022-07-06T12:32:17;2.83;;;1.15;;
51927;SDS011;37953;52.806;18.270;2022-07-06T12:37:36;3.75;;;1.13;;
51927;SDS011;37953;52.806;18.270;2022-07-06T12:40:26;4.00;;;1.10;;
51927;SDS011;37953;52.806;18.270;2022-07-06T12:42:56;4.55;;;1.35;;
51927;SDS011;37953;52.806;18.270;2022-07-06T12:45:26;2.95;;;1.30;;
51927;SDS011;37953;52.806;18.270;2022-07-06T12:47:58;1.45;;;0.85;;
51927;SDS011;37953;52.806;18.270;2022-07-06T12:50:38;4.05;;;1.17;;
51927;SDS011;37953;52.806;18.270;2022-07-06T12:53:05;3.15;;;0.90;;
51927;SDS011;37953;52.806;18.270;2022-07-06T12:55:37;3.92;;;1.00;;
51927;SDS011;37953;52.806;18.270;2022-07-06T12:58:03;1.90;;;0.77;;
51927;SDS011;37953;52.806;18.270;2022-07-06T13:00:29;2.13;;;1.00;;
51927;SDS011;37953;52.806;18.270;2022-07-06T13:03:11;2.30;;;0.88;;
51927;SDS011;37953;52.806;18.270;2022-07-06T13:05:37;3.80;;;1.08;;
51927;SDS011;37953;52.806;18.270;2022-07-06T13:08:03;1.80;;;1.00;;
51927;SDS011;37953;52.806;18.270;2022-07-06T13:10:30;2.50;;;1.00;;
51927;SDS011;37953;52.806;18.270;2022-07-06T13:13:21;3.47;;;1.27;;
51927;SDS011;37953;52.806;18.270;2022-07-06T13:15:53;2.92;;;1.45;;
51927;SDS011;37953;52.806;18.270;2022-07-06T13:18:19;3.17;;;1.20;;
51927;SDS011;37953;52.806;18.270;2022-07-06T13:20:45;4.28;;;1.10;;
51927;SDS011;37953;52.806;18.270;2022-07-06T13:23:11;4.47;;;1.00;;
51927;SDS011;37953;52.806;18.270;2022-07-06T13:25:43;2.92;;;1.00;;
51927;SDS011;37953;52.806;18.270;2022-07-06T13:28:09;7.60;;;1.45;;
51927;SDS011;37953;52.806;18.270;2022-07-06T13:30:35;2.25;;;0.80;;
51927;SDS011;37953;52.806;18.270;2022-07-06T13:33:01;3.45;;;0.93;;
51927;SDS011;37953;52.806;18.270;2022-07-06T13:35:27;6.10;;;1.10;;
51927;SDS011;37953;52.806;18.270;2022-07-06T13:37:53;7.07;;;1.05;;
51927;SDS011;37953;52.806;18.270;2022-07-06T13:40:19;2.08;;;0.85;;
51927;SDS011;37953;52.806;18.270;2022-07-06T13:42:45;1.92;;;0.90;;
51927;SDS011;37953;52.806;18.270;2022-07-06T13:45:11;2.90;;;0.88;;
51927;SDS011;37953;52.806;18.270;2022-07-06T13:47:37;3.03;;;0.85;;
51927;SDS011;37953;52.806;18.270;2022-07-06T13:50:03;4.25;;;0.70;;
51927;SDS011;37953;52.806;18.270;2022-07-06T13:52:29;2.28;;;0.75;;
51927;SDS011;37953;52.806;18.270;2022-07-06T13:54:55;3.50;;;0.90;;
51927;SDS011;37953;52.806;18.270;2022-07-06T13:57:21;2.70;;;0.80;;
51927;SDS011;37953;52.806;18.270;2022-07-06T13:59:47;5.47;;;1.10;;
51927;SDS011;37953;52.806;18.270;2022-07-06T14:02:13;1.98;;;0.90;;
51927;SDS011;37953;52.806;18.270;2022-07-06T14:04:39;3.78;;;1.10;;
51927;SDS011;37953;52.806;18.270;2022-07-06T14:07:05;4.07;;;1.10;;
51927;SDS011;37953;52.806;18.270;2022-07-06T14:09:31;3.30;;;1.00;;
51927;SDS011;37953;52.806;18.270;2022-07-06T14:11:57;3.15;;;1.20;;
51927;SDS011;37953;52.806;18.270;2022-07-06T14:14:23;10.20;;;1.30;;
51927;SDS011;37953;52.806;18.270;2022-07-06T14:16:49;3.38;;;0.80;;
51927;SDS011;37953;52.806;18.270;2022-07-06T14:19:16;1.40;;;0.80;;
51927;SDS011;37953;52.806;18.270;2022-07-06T14:21:42;4.15;;;0.93;;
51927;SDS011;37953;52.806;18.270;2022-07-06T14:24:10;2.30;;;0.75;;
51927;SDS011;37953;52.806;18.270;2022-07-06T14:26:35;2.40;;;0.73;;
51927;SDS011;37953;52.806;18.270;2022-07-06T14:29:01;4.35;;;0.70;;
51927;SDS011;37953;52.806;18.270;2022-07-06T14:31:27;1.45;;;0.80;;
51927;SDS011;37953;52.806;18.270;2022-07-06T14:33:53;2.22;;;0.70;;
51927;SDS011;37953;52.806;18.270;2022-07-06T14:36:19;1.95;;;0.60;;
51927;SDS011;37953;52.806;18.270;2022-07-06T14:38:46;2.90;;;0.73;;
51927;SDS011;37953;52.806;18.270;2022-07-06T14:41:12;6.65;;;0.70;;
51927;SDS011;37953;52.806;18.270;2022-07-06T14:43:38;2.40;;;0.80;;
51927;SDS011;37953;52.806;18.270;2022-07-06T14:46:04;2.25;;;0.60;;
51927;SDS011;37953;52.806;18.270;2022-07-06T14:48:30;3.15;;;1.15;;
51927;SDS011;37953;52.806;18.270;2022-07-06T14:50:56;4.57;;;1.80;;
51927;SDS011;37953;52.806;18.270;2022-07-06T14:56:35;0.90;;;0.60;;
51927;SDS011;37953;52.806;18.270;2022-07-06T14:59:02;1.60;;;0.63;;
51927;SDS011;37953;52.806;18.270;2022-07-06T15:01:28;4.20;;;1.10;;
51927;SDS011;37953;52.806;18.270;2022-07-06T15:03:54;6.38;;;0.70;;
51927;SDS011;37953;52.806;18.270;2022-07-06T15:06:20;2.92;;;0.63;;
51927;SDS011;37953;52.806;18.270;2022-07-06T15:08:46;3.10;;;0.55;;
51927;SDS011;37953;52.806;18.270;2022-07-06T15:11:12;7.47;;;2.53;;
51927;SDS011;37953;52.806;18.270;2022-07-06T15:13:38;7.47;;;2.47;;
51927;SDS011;37953;52.806;18.270;2022-07-06T15:16:04;2.90;;;1.17;;